sensor_id;sensor_type;location;lat;lon;timestamp;P1;durP1;ratioP1;P2;durP2;ratioP2
1346;SDS011;667;48.796;9.480;2024-01-16T00:01:04;4.40;;;3.83;;
1346;SDS011;667;48.796;9.480;2024-01-16T00:03:31;5.75;;;4.25;;
1346;SDS011;667;48.796;9.480;2024-01-16T00:05:57;5.57;;;3.97;;
1346;SDS011;667;48.796;9.480;2024-01-16T00:08:23;4.10;;;3.37;;
1346;SDS011;667;48.796;9.480;2024-01-16T00:10:49;5.35;;;3.63;;
1346;SDS011;667;48.796;9.480;2024-01-16T00:13:15;4.15;;;3.50;;
1346;SDS011;667;48.796;9.480;2024-01-16T00:15:41;5.55;;;3.70;;
1346;SDS011;667;48.796;9.480;2024-01-16T00:18:07;4.75;;;3.40;;
1346;SDS011;667;48.796;9.480;2024-01-16T00:20:33;5.50;;;4.30;;
1346;SDS011;667;48.796;9.480;2024-01-16T00:22:59;4.43;;;4.03;;
1346;SDS011;667;48.796;9.480;2024-01-16T00:25:25;5.40;;;4.83;;
1346;SDS011;667;48.796;9.480;2024-01-16T00:27:51;6.90;;;3.93;;
1346;SDS011;667;48.796;9.480;2024-01-16T00:30:17;10.00;;;4.50;;
1346;SDS011;667;48.796;9.480;2024-01-16T00:32:43;4.90;;;4.10;;
1346;SDS011;667;48.796;9.480;2024-01-16T00:35:08;4.63;;;3.87;;
1346;SDS011;667;48.796;9.480;2024-01-16T00:37:36;6.90;;;4.10;;
1346;SDS011;667;48.796;9.480;2024-01-16T00:40:02;4.03;;;3.53;;
1346;SDS011;667;48.796;9.480;2024-01-16T00:42:29;6.82;;;3.70;;
1346;SDS011;667;48.796;9.480;2024-01-16T00:44:57;5.57;;;3.92;;
1346;SDS011;667;48.796;9.480;2024-01-16T00:47:23;5.40;;;3.77;;
1346;SDS011;667;48.796;9.480;2024-01-16T00:49:49;4.70;;;4.00;;
1346;SDS011;667;48.796;9.480;2024-01-16T00:52:15;4.00;;;3.50;;
1346;SDS011;667;48.796;9.480;2024-01-16T00:54:40;4.00;;;2.83;;
1346;SDS011;667;48.796;9.480;2024-01-16T00:57:07;6.93;;;4.30;;
1346;SDS011;667;48.796;9.480;2024-01-16T00:59:33;4.60;;;3.50;;
1346;SDS011;667;48.796;9.480;2024-01-16T01:01:58;4.13;;;3.73;;
1346;SDS011;667;48.796;9.480;2024-01-16T01:04:24;5.50;;;3.97;;
1346;SDS011;667;48.796;9.480;2024-01-16T01:06:49;5.17;;;4.27;;
1346;SDS011;667;48.796;9.480;2024-01-16T01:09:15;6.90;;;3.73;;
1346;SDS011;667;48.796;9.480;2024-01-16T01:11:42;4.95;;;3.13;;
1346;SDS011;667;48.796;9.480;2024-01-16T01:14:07;3.87;;;3.57;;
1346;SDS011;667;48.796;9.480;2024-01-16T01:16:33;6.60;;;4.23;;
1346;SDS011;667;48.796;9.480;2024-01-16T01:18:58;8.27;;;4.00;;
1346;SDS011;667;48.796;9.480;2024-01-16T01:21:24;5.17;;;3.73;;
1346;SDS011;667;48.796;9.480;2024-01-16T01:23:50;4.10;;;3.63;;
1346;SDS011;667;48.796;9.480;2024-01-16T01:26:16;5.87;;;4.00;;
1346;SDS011;667;48.796;9.480;2024-01-16T01:28:44;5.22;;;3.85;;
1346;SDS011;667;48.796;9.480;2024-01-16T01:31:11;5.32;;;3.80;;
1346;SDS011;667;48.796;9.480;2024-01-16T01:33:37;5.03;;;4.30;;
1346;SDS011;667;48.796;9.480;2024-01-16T01:36:02;5.20;;;4.27;;
1346;SDS011;667;48.796;9.480;2024-01-16T01:38:28;4.57;;;3.47;;
1346;SDS011;667;48.796;9.480;2024-01-16T01:40:54;5.13;;;4.20;;
1346;SDS011;667;48.796;9.480;2024-01-16T01:43:20;5.97;;;3.30;;
1346;SDS011;667;48.796;9.480;2024-01-16T01:45:51;5.32;;;3.80;;
1346;SDS011;667;48.796;9.480;2024-01-16T01:48:32;5.53;;;3.45;;
1346;SDS011;667;48.796;9.480;2024-01-16T01:50:58;4.47;;;3.30;;
1346;SDS011;667;48.796;9.480;2024-01-16T01:53:25;5.93;;;3.65;;
1346;SDS011;667;48.796;9.480;2024-01-16T01:55:51;5.75;;;3.75;;
1346;SDS011;667;48.796;9.480;2024-01-16T01:58:16;6.53;;;3.70;;
1346;SDS011;667;48.796;9.480;2024-01-16T02:00:42;6.07;;;4.17;;
1346;SDS011;667;48.796;9.480;2024-01-16T02:03:08;8.90;;;4.53;;
1346;SDS011;667;48.796;9.480;2024-01-16T02:05:34;3.60;;;3.30;;
1346;SDS011;667;48.796;9.480;2024-01-16T02:07:59;5.10;;;3.47;;
1346;SDS011;667;48.796;9.480;2024-01-16T02:10:25;5.40;;;3.43;;
1346;SDS011;667;48.796;9.480;2024-01-16T02:12:51;4.87;;;3.70;;
1346;SDS011;667;48.796;9.480;2024-01-16T02:15:16;5.70;;;4.00;;
1346;SDS011;667;48.796;9.480;2024-01-16T02:17:42;6.70;;;3.40;;
1346;SDS011;667;48.796;9.480;2024-01-16T02:20:08;3.40;;;3.03;;
1346;SDS011;667;48.796;9.480;2024-01-16T02:22:34;7.90;;;4.00;;
1346;SDS011;667;48.796;9.480;2024-01-16T02:25:02;7.00;;;3.35;;
1346;SDS011;667;48.796;9.480;2024-01-16T02:27:28;5.63;;;4.13;;
1346;SDS011;667;48.796;9.480;2024-01-16T02:29:54;7.97;;;3.40;;
1346;SDS011;667;48.796;9.480;2024-01-16T02:32:19;5.37;;;3.57;;
1346;SDS011;667;48.796;9.480;2024-01-16T02:34:45;4.70;;;3.57;;
1346;SDS011;667;48.796;9.480;2024-01-16T02:37:10;6.13;;;3.60;;
1346;SDS011;667;48.796;9.480;2024-01-16T02:39:36;5.40;;;3.53;;
1346;SDS011;667;48.796;9.480;2024-01-16T02:42:02;4.37;;;3.40;;
1346;SDS011;667;48.796;9.480;2024-01-16T02:44:27;4.10;;;3.60;;
1346;SDS011;667;48.796;9.480;2024-01-16T02:46:53;4.00;;;3.37;;
1346;SDS011;667;48.796;9.480;2024-01-16T02:49:19;4.30;;;3.90;;
1346;SDS011;667;48.796;9.480;2024-01-16T02:51:44;4.70;;;3.43;;
1346;SDS011;667;48.796;9.480;2024-01-16T02:54:10;4.80;;;3.60;;
1346;SDS011;667;48.796;9.480;2024-01-16T02:56:36;7.22;;;3.78;;
1346;SDS011;667;48.796;9.480;2024-01-16T02:59:02;4.77;;;3.77;;
1346;SDS011;667;48.796;9.480;2024-01-16T03:01:28;4.70;;;3.50;;
1346;SDS011;667;48.796;9.480;2024-01-16T03:03:53;5.33;;;3.30;;
1346;SDS011;667;48.796;9.480;2024-01-16T03:06:25;4.53;;;3.60;;
1346;SDS011;667;48.796;9.480;2024-01-16T03:08:51;5.38;;;3.72;;
1346;SDS011;667;48.796;9.480;2024-01-16T03:11:17;4.38;;;3.42;;
1346;SDS011;667;48.796;9.480;2024-01-16T03:13:42;4.50;;;3.60;;
1346;SDS011;667;48.796;9.480;2024-01-16T03:16:09;4.33;;;3.20;;
1346;SDS011;667;48.796;9.480;2024-01-16T03:18:36;4.68;;;3.50;;
1346;SDS011;667;48.796;9.480;2024-01-16T03:21:03;4.38;;;3.08;;
1346;SDS011;667;48.796;9.480;2024-01-16T03:23:29;5.10;;;3.30;;
1346;SDS011;667;48.796;9.480;2024-01-16T03:25:55;6.10;;;3.60;;
1346;SDS011;667;48.796;9.480;2024-01-16T03:28:20;4.83;;;3.53;;
1346;SDS011;667;48.796;9.480;2024-01-16T03:30:46;3.50;;;3.20;;
1346;SDS011;667;48.796;9.480;2024-01-16T03:33:12;5.80;;;3.43;;
1346;SDS011;667;48.796;9.480;2024-01-16T03:35:37;7.40;;;4.30;;
1346;SDS011;667;48.796;9.480;2024-01-16T03:38:03;4.33;;;3.57;;
1346;SDS011;667;48.796;9.480;2024-01-16T03:40:29;3.87;;;3.10;;
1346;SDS011;667;48.796;9.480;2024-01-16T03:42:59;3.85;;;3.25;;
1346;SDS011;667;48.796;9.480;2024-01-16T03:45:24;4.37;;;3.67;;
1346;SDS011;667;48.796;9.480;2024-01-16T03:47:50;4.23;;;2.70;;
1346;SDS011;667;48.796;9.480;2024-01-16T03:50:15;5.83;;;3.30;;
1346;SDS011;667;48.796;9.480;2024-01-16T03:52:41;3.73;;;3.40;;
1346;SDS011;667;48.796;9.480;2024-01-16T03:55:07;4.20;;;3.43;;
1346;SDS011;667;48.796;9.480;2024-01-16T03:57:33;4.83;;;3.70;;
1346;SDS011;667;48.796;9.480;2024-01-16T03:59:58;3.87;;;2.80;;
1346;SDS011;667;48.796;9.480;2024-01-16T04:02:24;5.10;;;3.70;;
1346;SDS011;667;48.796;9.480;2024-01-16T04:04:49;6.80;;;3.43;;
1346;SDS011;667;48.796;9.480;2024-01-16T04:07:15;4.07;;;3.23;;
1346;SDS011;667;48.796;9.480;2024-01-16T04:09:42;6.40;;;4.47;;
1346;SDS011;667;48.796;9.480;2024-01-16T04:12:08;6.30;;;4.57;;
1346;SDS011;667;48.796;9.480;2024-01-16T04:14:33;4.00;;;3.53;;
1346;SDS011;667;48.796;9.480;2024-01-16T04:16:59;4.50;;;3.75;;
1346;SDS011;667;48.796;9.480;2024-01-16T04:19:25;4.53;;;3.27;;
1346;SDS011;667;48.796;9.480;2024-01-16T04:21:50;4.00;;;3.30;;
1346;SDS011;667;48.796;9.480;2024-01-16T04:24:16;6.90;;;3.30;;
1346;SDS011;667;48.796;9.480;2024-01-16T04:26:41;4.10;;;3.30;;
1346;SDS011;667;48.796;9.480;2024-01-16T04:29:07;6.63;;;3.40;;
1346;SDS011;667;48.796;9.480;2024-01-16T04:31:38;5.75;;;2.70;;
1346;SDS011;667;48.796;9.480;2024-01-16T04:34:05;4.95;;;3.33;;
1346;SDS011;667;48.796;9.480;2024-01-16T04:36:31;4.23;;;3.33;;
1346;SDS011;667;48.796;9.480;2024-01-16T04:38:56;3.90;;;3.20;;
1346;SDS011;667;48.796;9.480;2024-01-16T04:41:22;4.13;;;3.10;;
1346;SDS011;667;48.796;9.480;2024-01-16T04:43:47;3.67;;;2.87;;
1346;SDS011;667;48.796;9.480;2024-01-16T04:46:14;3.67;;;3.30;;
1346;SDS011;667;48.796;9.480;2024-01-16T04:48:40;3.10;;;2.83;;
1346;SDS011;667;48.796;9.480;2024-01-16T04:51:06;5.30;;;3.08;;
1346;SDS011;667;48.796;9.480;2024-01-16T04:53:32;5.37;;;3.20;;
1346;SDS011;667;48.796;9.480;2024-01-16T04:55:58;7.30;;;2.92;;
1346;SDS011;667;48.796;9.480;2024-01-16T04:58:24;27.80;;;17.33;;
1346;SDS011;667;48.796;9.480;2024-01-16T05:00:50;5.67;;;3.80;;
1346;SDS011;667;48.796;9.480;2024-01-16T05:03:15;3.40;;;2.93;;
1346;SDS011;667;48.796;9.480;2024-01-16T05:05:41;2.87;;;2.57;;
1346;SDS011;667;48.796;9.480;2024-01-16T05:08:06;3.80;;;2.73;;
1346;SDS011;667;48.796;9.480;2024-01-16T05:10:32;4.27;;;2.60;;
1346;SDS011;667;48.796;9.480;2024-01-16T05:12:57;6.60;;;2.93;;
1346;SDS011;667;48.796;9.480;2024-01-16T05:15:23;2.87;;;2.00;;
1346;SDS011;667;48.796;9.480;2024-01-16T05:17:48;6.20;;;3.07;;
1346;SDS011;667;48.796;9.480;2024-01-16T05:20:14;2.80;;;2.47;;
1346;SDS011;667;48.796;9.480;2024-01-16T05:22:40;3.80;;;2.70;;
1346;SDS011;667;48.796;9.480;2024-01-16T05:25:06;5.53;;;2.43;;
1346;SDS011;667;48.796;9.480;2024-01-16T05:27:35;4.78;;;2.92;;
1346;SDS011;667;48.796;9.480;2024-01-16T05:30:00;6.30;;;3.20;;
1346;SDS011;667;48.796;9.480;2024-01-16T05:32:26;3.40;;;2.80;;
1346;SDS011;667;48.796;9.480;2024-01-16T05:34:52;5.60;;;3.00;;
1346;SDS011;667;48.796;9.480;2024-01-16T05:37:18;3.90;;;2.63;;
1346;SDS011;667;48.796;9.480;2024-01-16T05:39:44;3.47;;;2.60;;
1346;SDS011;667;48.796;9.480;2024-01-16T05:42:11;4.20;;;2.67;;
1346;SDS011;667;48.796;9.480;2024-01-16T05:44:37;4.70;;;2.90;;
1346;SDS011;667;48.796;9.480;2024-01-16T05:47:03;3.60;;;2.42;;
1346;SDS011;667;48.796;9.480;2024-01-16T05:49:29;3.83;;;2.80;;
1346;SDS011;667;48.796;9.480;2024-01-16T05:51:54;3.53;;;2.57;;
1346;SDS011;667;48.796;9.480;2024-01-16T05:54:20;4.07;;;2.73;;
1346;SDS011;667;48.796;9.480;2024-01-16T05:56:46;3.83;;;2.80;;
1346;SDS011;667;48.796;9.480;2024-01-16T05:59:11;5.20;;;3.00;;
1346;SDS011;667;48.796;9.480;2024-01-16T06:01:37;5.40;;;2.90;;
1346;SDS011;667;48.796;9.480;2024-01-16T06:04:03;5.00;;;2.90;;
1346;SDS011;667;48.796;9.480;2024-01-16T06:06:28;4.43;;;2.70;;
1346;SDS011;667;48.796;9.480;2024-01-16T06:08:54;3.30;;;2.77;;
1346;SDS011;667;48.796;9.480;2024-01-16T06:11:31;3.65;;;2.85;;
1346;SDS011;667;48.796;9.480;2024-01-16T06:13:56;3.80;;;2.90;;
1346;SDS011;667;48.796;9.480;2024-01-16T06:16:22;2.90;;;2.47;;
1346;SDS011;667;48.796;9.480;2024-01-16T06:18:48;4.23;;;3.33;;
1346;SDS011;667;48.796;9.480;2024-01-16T06:21:13;3.00;;;2.70;;
1346;SDS011;667;48.796;9.480;2024-01-16T06:23:39;4.33;;;3.40;;
1346;SDS011;667;48.796;9.480;2024-01-16T06:26:07;3.10;;;2.50;;
1346;SDS011;667;48.796;9.480;2024-01-16T06:28:33;2.25;;;2.05;;
1346;SDS011;667;48.796;9.480;2024-01-16T06:30:58;2.87;;;2.33;;
1346;SDS011;667;48.796;9.480;2024-01-16T06:33:24;2.77;;;2.07;;
1346;SDS011;667;48.796;9.480;2024-01-16T06:35:50;3.92;;;2.97;;
1346;SDS011;667;48.796;9.480;2024-01-16T06:38:16;3.90;;;2.13;;
1346;SDS011;667;48.796;9.480;2024-01-16T06:40:42;2.93;;;2.40;;
1346;SDS011;667;48.796;9.480;2024-01-16T06:43:07;2.83;;;2.30;;
1346;SDS011;667;48.796;9.480;2024-01-16T06:45:33;3.60;;;3.10;;
1346;SDS011;667;48.796;9.480;2024-01-16T06:47:59;3.30;;;2.27;;
1346;SDS011;667;48.796;9.480;2024-01-16T06:50:24;2.97;;;2.43;;
1346;SDS011;667;48.796;9.480;2024-01-16T06:52:50;7.60;;;3.00;;
1346;SDS011;667;48.796;9.480;2024-01-16T06:55:16;4.77;;;3.20;;
1346;SDS011;667;48.796;9.480;2024-01-16T06:57:41;3.77;;;2.70;;
1346;SDS011;667;48.796;9.480;2024-01-16T07:00:07;3.03;;;2.67;;
1346;SDS011;667;48.796;9.480;2024-01-16T07:02:33;3.85;;;2.55;;
1346;SDS011;667;48.796;9.480;2024-01-16T07:04:58;4.27;;;3.10;;
1346;SDS011;667;48.796;9.480;2024-01-16T07:07:24;4.68;;;2.95;;
1346;SDS011;667;48.796;9.480;2024-01-16T07:09:50;4.53;;;2.90;;
1346;SDS011;667;48.796;9.480;2024-01-16T07:12:15;5.07;;;3.60;;
1346;SDS011;667;48.796;9.480;2024-01-16T07:14:41;6.13;;;3.30;;
1346;SDS011;667;48.796;9.480;2024-01-16T07:17:07;7.63;;;4.23;;
1346;SDS011;667;48.796;9.480;2024-01-16T07:19:32;5.53;;;4.07;;
1346;SDS011;667;48.796;9.480;2024-01-16T07:21:58;8.27;;;4.50;;
1346;SDS011;667;48.796;9.480;2024-01-16T07:24:24;5.67;;;4.10;;
1346;SDS011;667;48.796;9.480;2024-01-16T07:26:49;7.10;;;4.27;;
1346;SDS011;667;48.796;9.480;2024-01-16T07:29:15;5.30;;;4.10;;
1346;SDS011;667;48.796;9.480;2024-01-16T07:31:40;5.87;;;4.07;;
1346;SDS011;667;48.796;9.480;2024-01-16T07:34:06;6.30;;;4.47;;
1346;SDS011;667;48.796;9.480;2024-01-16T07:36:32;6.70;;;5.03;;
1346;SDS011;667;48.796;9.480;2024-01-16T07:38:57;9.33;;;4.90;;
1346;SDS011;667;48.796;9.480;2024-01-16T07:41:23;12.87;;;4.63;;
1346;SDS011;667;48.796;9.480;2024-01-16T07:43:48;8.93;;;5.87;;
1346;SDS011;667;48.796;9.480;2024-01-16T07:46:14;6.93;;;5.80;;
1346;SDS011;667;48.796;9.480;2024-01-16T07:48:39;13.17;;;7.77;;
1346;SDS011;667;48.796;9.480;2024-01-16T07:51:05;11.53;;;8.53;;
1346;SDS011;667;48.796;9.480;2024-01-16T07:53:31;7.60;;;6.80;;
1346;SDS011;667;48.796;9.480;2024-01-16T07:55:56;7.27;;;6.00;;
1346;SDS011;667;48.796;9.480;2024-01-16T07:58:22;6.13;;;5.33;;
1346;SDS011;667;48.796;9.480;2024-01-16T08:00:48;8.67;;;6.57;;
1346;SDS011;667;48.796;9.480;2024-01-16T08:03:14;10.38;;;7.25;;
1346;SDS011;667;48.796;9.480;2024-01-16T08:05:39;9.70;;;7.10;;
1346;SDS011;667;48.796;9.480;2024-01-16T08:08:08;10.83;;;7.10;;
1346;SDS011;667;48.796;9.480;2024-01-16T08:10:34;13.18;;;7.97;;
1346;SDS011;667;48.796;9.480;2024-01-16T08:13:00;10.23;;;7.50;;
1346;SDS011;667;48.796;9.480;2024-01-16T08:15:25;14.50;;;7.70;;
1346;SDS011;667;48.796;9.480;2024-01-16T08:17:51;11.77;;;7.40;;
1346;SDS011;667;48.796;9.480;2024-01-16T08:20:17;10.33;;;7.83;;
1346;SDS011;667;48.796;9.480;2024-01-16T08:22:42;13.50;;;7.73;;
1346;SDS011;667;48.796;9.480;2024-01-16T08:25:08;15.53;;;8.27;;
1346;SDS011;667;48.796;9.480;2024-01-16T08:27:34;10.83;;;8.47;;
1346;SDS011;667;48.796;9.480;2024-01-16T08:29:59;25.23;;;17.47;;
1346;SDS011;667;48.796;9.480;2024-01-16T08:32:25;27.33;;;19.27;;
1346;SDS011;667;48.796;9.480;2024-01-16T08:34:51;28.17;;;15.90;;
1346;SDS011;667;48.796;9.480;2024-01-16T08:37:17;19.30;;;12.70;;
1346;SDS011;667;48.796;9.480;2024-01-16T08:39:42;15.80;;;9.57;;
1346;SDS011;667;48.796;9.480;2024-01-16T08:42:08;10.50;;;8.80;;
1346;SDS011;667;48.796;9.480;2024-01-16T08:44:36;14.70;;;9.23;;
1346;SDS011;667;48.796;9.480;2024-01-16T08:47:05;10.18;;;7.95;;
1346;SDS011;667;48.796;9.480;2024-01-16T08:49:31;11.27;;;8.13;;
1346;SDS011;667;48.796;9.480;2024-01-16T08:51:58;15.95;;;10.15;;
1346;SDS011;667;48.796;9.480;2024-01-16T08:54:24;8.63;;;6.93;;
1346;SDS011;667;48.796;9.480;2024-01-16T08:56:50;9.32;;;7.57;;
1346;SDS011;667;48.796;9.480;2024-01-16T08:59:16;5.20;;;4.30;;
1346;SDS011;667;48.796;9.480;2024-01-16T09:01:42;12.23;;;8.07;;
1346;SDS011;667;48.796;9.480;2024-01-16T09:04:07;11.77;;;7.93;;
1346;SDS011;667;48.796;9.480;2024-01-16T09:06:33;7.83;;;5.13;;
1346;SDS011;667;48.796;9.480;2024-01-16T09:08:59;9.30;;;6.93;;
1346;SDS011;667;48.796;9.480;2024-01-16T09:11:24;21.63;;;13.87;;
1346;SDS011;667;48.796;9.480;2024-01-16T09:13:50;8.73;;;6.40;;
1346;SDS011;667;48.796;9.480;2024-01-16T09:16:16;10.35;;;6.70;;
1346;SDS011;667;48.796;9.480;2024-01-16T09:18:42;11.97;;;8.30;;
1346;SDS011;667;48.796;9.480;2024-01-16T09:21:07;10.40;;;6.97;;
1346;SDS011;667;48.796;9.480;2024-01-16T09:23:33;13.03;;;7.07;;
1346;SDS011;667;48.796;9.480;2024-01-16T09:25:59;9.77;;;7.00;;
1346;SDS011;667;48.796;9.480;2024-01-16T09:28:24;5.27;;;4.30;;
1346;SDS011;667;48.796;9.480;2024-01-16T09:30:50;6.23;;;3.93;;
1346;SDS011;667;48.796;9.480;2024-01-16T09:33:16;5.20;;;4.07;;
1346;SDS011;667;48.796;9.480;2024-01-16T09:35:41;6.50;;;4.73;;
1346;SDS011;667;48.796;9.480;2024-01-16T09:38:07;6.20;;;5.27;;
1346;SDS011;667;48.796;9.480;2024-01-16T09:40:33;10.55;;;6.75;;
1346;SDS011;667;48.796;9.480;2024-01-16T09:43:00;8.30;;;4.88;;
1346;SDS011;667;48.796;9.480;2024-01-16T09:45:26;9.93;;;5.37;;
1346;SDS011;667;48.796;9.480;2024-01-16T09:47:54;7.80;;;5.22;;
1346;SDS011;667;48.796;9.480;2024-01-16T09:50:20;8.27;;;5.93;;
1346;SDS011;667;48.796;9.480;2024-01-16T09:52:47;6.38;;;4.80;;
1346;SDS011;667;48.796;9.480;2024-01-16T09:55:14;8.25;;;4.43;;
1346;SDS011;667;48.796;9.480;2024-01-16T09:57:40;4.57;;;4.18;;
1346;SDS011;667;48.796;9.480;2024-01-16T10:00:08;6.38;;;4.32;;
1346;SDS011;667;48.796;9.480;2024-01-16T10:02:41;7.53;;;4.50;;
1346;SDS011;667;48.796;9.480;2024-01-16T10:05:10;6.93;;;4.82;;
1346;SDS011;667;48.796;9.480;2024-01-16T10:07:40;6.22;;;4.20;;
1346;SDS011;667;48.796;9.480;2024-01-16T10:10:09;5.07;;;4.00;;
1346;SDS011;667;48.796;9.480;2024-01-16T10:12:38;5.28;;;3.80;;
1346;SDS011;667;48.796;9.480;2024-01-16T10:15:07;4.28;;;3.65;;
1346;SDS011;667;48.796;9.480;2024-01-16T10:20:03;6.95;;;3.92;;
1346;SDS011;667;48.796;9.480;2024-01-16T10:22:29;10.52;;;4.30;;
1346;SDS011;667;48.796;9.480;2024-01-16T10:28:02;5.45;;;3.67;;
1346;SDS011;667;48.796;9.480;2024-01-16T10:30:29;3.90;;;3.35;;
1346;SDS011;667;48.796;9.480;2024-01-16T10:32:55;4.37;;;3.40;;
1346;SDS011;667;48.796;9.480;2024-01-16T10:35:36;6.45;;;3.25;;
1346;SDS011;667;48.796;9.480;2024-01-16T10:38:02;6.27;;;3.70;;
1346;SDS011;667;48.796;9.480;2024-01-16T10:40:27;5.77;;;4.20;;
1346;SDS011;667;48.796;9.480;2024-01-16T10:43:02;4.13;;;3.72;;
1346;SDS011;667;48.796;9.480;2024-01-16T10:45:30;5.82;;;4.35;;
1346;SDS011;667;48.796;9.480;2024-01-16T10:48:06;6.28;;;3.95;;
1346;SDS011;667;48.796;9.480;2024-01-16T10:50:33;7.28;;;5.10;;
1346;SDS011;667;48.796;9.480;2024-01-16T10:53:00;8.60;;;6.20;;
1346;SDS011;667;48.796;9.480;2024-01-16T10:55:29;4.85;;;4.20;;
1346;SDS011;667;48.796;9.480;2024-01-16T10:57:58;4.30;;;3.67;;
1346;SDS011;667;48.796;9.480;2024-01-16T11:00:25;5.68;;;4.10;;
1346;SDS011;667;48.796;9.480;2024-01-16T11:05:25;5.18;;;3.85;;
1346;SDS011;667;48.796;9.480;2024-01-16T11:07:53;8.07;;;4.10;;
1346;SDS011;667;48.796;9.480;2024-01-16T11:10:20;6.00;;;5.05;;
1346;SDS011;667;48.796;9.480;2024-01-16T11:12:46;6.43;;;4.88;;
1346;SDS011;667;48.796;9.480;2024-01-16T11:15:14;5.45;;;4.95;;
1346;SDS011;667;48.796;9.480;2024-01-16T11:17:40;4.57;;;3.97;;
1346;SDS011;667;48.796;9.480;2024-01-16T11:20:09;5.15;;;4.40;;
1346;SDS011;667;48.796;9.480;2024-01-16T11:22:37;4.50;;;4.10;;
1346;SDS011;667;48.796;9.480;2024-01-16T11:27:39;4.70;;;3.88;;
1346;SDS011;667;48.796;9.480;2024-01-16T11:30:06;4.95;;;3.40;;
1346;SDS011;667;48.796;9.480;2024-01-16T11:32:39;7.43;;;3.47;;
1346;SDS011;667;48.796;9.480;2024-01-16T11:35:06;3.92;;;3.63;;
1346;SDS011;667;48.796;9.480;2024-01-16T11:37:33;6.53;;;3.45;;
1346;SDS011;667;48.796;9.480;2024-01-16T11:42:45;3.28;;;2.80;;
1346;SDS011;667;48.796;9.480;2024-01-16T11:50:37;7.18;;;4.50;;
1346;SDS011;667;48.796;9.480;2024-01-16T11:53:03;6.93;;;4.93;;
1346;SDS011;667;48.796;9.480;2024-01-16T11:55:39;7.10;;;3.33;;
1346;SDS011;667;48.796;9.480;2024-01-16T11:58:25;5.28;;;3.05;;
1346;SDS011;667;48.796;9.480;2024-01-16T12:01:10;5.90;;;3.60;;
1346;SDS011;667;48.796;9.480;2024-01-16T12:03:37;3.45;;;2.83;;
1346;SDS011;667;48.796;9.480;2024-01-16T12:06:02;3.40;;;2.73;;
1346;SDS011;667;48.796;9.480;2024-01-16T12:08:31;3.72;;;2.35;;
1346;SDS011;667;48.796;9.480;2024-01-16T12:10:57;3.28;;;2.97;;
1346;SDS011;667;48.796;9.480;2024-01-16T12:13:24;4.93;;;3.15;;
1346;SDS011;667;48.796;9.480;2024-01-16T12:15:59;4.87;;;2.10;;
1346;SDS011;667;48.796;9.480;2024-01-16T12:18:26;4.55;;;2.60;;
1346;SDS011;667;48.796;9.480;2024-01-16T12:20:52;5.13;;;2.60;;
1346;SDS011;667;48.796;9.480;2024-01-16T12:23:17;3.20;;;2.20;;
1346;SDS011;667;48.796;9.480;2024-01-16T12:25:44;3.28;;;2.50;;
1346;SDS011;667;48.796;9.480;2024-01-16T12:28:09;3.20;;;2.90;;
1346;SDS011;667;48.796;9.480;2024-01-16T12:30:36;2.55;;;1.77;;
1346;SDS011;667;48.796;9.480;2024-01-16T12:33:06;2.40;;;1.90;;
1346;SDS011;667;48.796;9.480;2024-01-16T12:35:42;2.65;;;1.70;;
1346;SDS011;667;48.796;9.480;2024-01-16T12:38:12;8.57;;;4.30;;
1346;SDS011;667;48.796;9.480;2024-01-16T12:40:56;11.65;;;8.02;;
1346;SDS011;667;48.796;9.480;2024-01-16T12:43:23;7.55;;;5.57;;
1346;SDS011;667;48.796;9.480;2024-01-16T12:45:55;38.17;;;19.70;;
1346;SDS011;667;48.796;9.480;2024-01-16T12:48:25;18.90;;;9.00;;
1346;SDS011;667;48.796;9.480;2024-01-16T12:50:51;6.68;;;3.28;;
1346;SDS011;667;48.796;9.480;2024-01-16T12:53:24;35.15;;;22.00;;
1346;SDS011;667;48.796;9.480;2024-01-16T12:55:56;12.90;;;8.47;;
1346;SDS011;667;48.796;9.480;2024-01-16T12:58:24;5.50;;;2.08;;
1346;SDS011;667;48.796;9.480;2024-01-16T13:00:52;3.92;;;3.13;;
1346;SDS011;667;48.796;9.480;2024-01-16T13:03:19;2.73;;;1.87;;
1346;SDS011;667;48.796;9.480;2024-01-16T13:05:54;4.03;;;1.40;;
1346;SDS011;667;48.796;9.480;2024-01-16T13:08:20;3.17;;;1.92;;
1346;SDS011;667;48.796;9.480;2024-01-16T13:10:47;2.40;;;1.30;;
1346;SDS011;667;48.796;9.480;2024-01-16T13:13:28;2.60;;;1.55;;
1346;SDS011;667;48.796;9.480;2024-01-16T13:15:54;1.43;;;1.30;;
1346;SDS011;667;48.796;9.480;2024-01-16T13:18:23;2.73;;;1.43;;
1346;SDS011;667;48.796;9.480;2024-01-16T13:20:51;2.55;;;1.30;;
1346;SDS011;667;48.796;9.480;2024-01-16T13:23:17;1.98;;;1.02;;
1346;SDS011;667;48.796;9.480;2024-01-16T13:25:44;3.30;;;1.42;;
1346;SDS011;667;48.796;9.480;2024-01-16T13:28:14;1.90;;;1.60;;
1346;SDS011;667;48.796;9.480;2024-01-16T13:30:40;1.65;;;1.55;;
1346;SDS011;667;48.796;9.480;2024-01-16T13:33:07;2.50;;;1.83;;
1346;SDS011;667;48.796;9.480;2024-01-16T13:35:37;2.07;;;1.70;;
1346;SDS011;667;48.796;9.480;2024-01-16T13:38:04;2.08;;;1.80;;
1346;SDS011;667;48.796;9.480;2024-01-16T13:40:33;2.70;;;2.03;;
1346;SDS011;667;48.796;9.480;2024-01-16T13:43:01;4.30;;;1.65;;
1346;SDS011;667;48.796;9.480;2024-01-16T13:45:27;1.85;;;1.75;;
1346;SDS011;667;48.796;9.480;2024-01-16T13:47:53;2.30;;;1.40;;
1346;SDS011;667;48.796;9.480;2024-01-16T13:50:19;1.75;;;1.50;;
1346;SDS011;667;48.796;9.480;2024-01-16T13:52:45;3.10;;;2.00;;
1346;SDS011;667;48.796;9.480;2024-01-16T13:55:11;2.77;;;1.93;;
1346;SDS011;667;48.796;9.480;2024-01-16T13:57:36;5.70;;;2.37;;
1346;SDS011;667;48.796;9.480;2024-01-16T14:00:03;2.07;;;1.70;;
1346;SDS011;667;48.796;9.480;2024-01-16T14:02:29;2.85;;;1.67;;
1346;SDS011;667;48.796;9.480;2024-01-16T14:04:55;2.97;;;1.70;;
1346;SDS011;667;48.796;9.480;2024-01-16T14:07:21;2.50;;;1.73;;
1346;SDS011;667;48.796;9.480;2024-01-16T14:09:47;4.10;;;1.83;;
1346;SDS011;667;48.796;9.480;2024-01-16T14:12:13;2.90;;;1.90;;
1346;SDS011;667;48.796;9.480;2024-01-16T14:14:39;2.77;;;1.70;;
1346;SDS011;667;48.796;9.480;2024-01-16T14:17:05;3.55;;;2.10;;
1346;SDS011;667;48.796;9.480;2024-01-16T14:19:31;4.17;;;1.77;;
1346;SDS011;667;48.796;9.480;2024-01-16T14:21:59;4.38;;;1.65;;
1346;SDS011;667;48.796;9.480;2024-01-16T14:24:25;1.98;;;1.80;;
1346;SDS011;667;48.796;9.480;2024-01-16T14:26:51;1.70;;;1.60;;
1346;SDS011;667;48.796;9.480;2024-01-16T14:29:16;2.87;;;1.87;;
1346;SDS011;667;48.796;9.480;2024-01-16T14:31:43;4.60;;;2.20;;
1346;SDS011;667;48.796;9.480;2024-01-16T14:34:11;2.77;;;2.00;;
1346;SDS011;667;48.796;9.480;2024-01-16T14:36:41;2.50;;;1.90;;
1346;SDS011;667;48.796;9.480;2024-01-16T14:39:07;2.10;;;1.60;;
1346;SDS011;667;48.796;9.480;2024-01-16T14:41:38;2.95;;;1.85;;
1346;SDS011;667;48.796;9.480;2024-01-16T14:44:04;2.90;;;1.92;;
1346;SDS011;667;48.796;9.480;2024-01-16T14:46:31;1.85;;;1.60;;
1346;SDS011;667;48.796;9.480;2024-01-16T14:48:58;6.55;;;3.13;;
1346;SDS011;667;48.796;9.480;2024-01-16T14:51:23;2.93;;;2.03;;
1346;SDS011;667;48.796;9.480;2024-01-16T14:53:49;1.70;;;1.60;;
1346;SDS011;667;48.796;9.480;2024-01-16T14:56:14;15.03;;;7.60;;
1346;SDS011;667;48.796;9.480;2024-01-16T14:58:40;25.67;;;15.73;;
1346;SDS011;667;48.796;9.480;2024-01-16T15:01:05;22.30;;;12.90;;
1346;SDS011;667;48.796;9.480;2024-01-16T15:03:32;12.60;;;6.10;;
1346;SDS011;667;48.796;9.480;2024-01-16T15:05:57;6.40;;;3.60;;
1346;SDS011;667;48.796;9.480;2024-01-16T15:08:23;5.67;;;3.77;;
1346;SDS011;667;48.796;9.480;2024-01-16T15:10:51;2.95;;;1.60;;
1346;SDS011;667;48.796;9.480;2024-01-16T15:13:16;2.50;;;1.80;;
1346;SDS011;667;48.796;9.480;2024-01-16T15:15:42;1.87;;;1.70;;
1346;SDS011;667;48.796;9.480;2024-01-16T15:18:08;3.80;;;1.70;;
1346;SDS011;667;48.796;9.480;2024-01-16T15:20:34;3.50;;;2.10;;
1346;SDS011;667;48.796;9.480;2024-01-16T15:22:59;2.23;;;1.70;;
1346;SDS011;667;48.796;9.480;2024-01-16T15:25:25;2.10;;;1.50;;
1346;SDS011;667;48.796;9.480;2024-01-16T15:27:51;1.90;;;1.30;;
1346;SDS011;667;48.796;9.480;2024-01-16T15:30:20;1.98;;;1.38;;
1346;SDS011;667;48.796;9.480;2024-01-16T15:32:56;2.88;;;1.50;;
1346;SDS011;667;48.796;9.480;2024-01-16T15:35:22;3.63;;;2.90;;
1346;SDS011;667;48.796;9.480;2024-01-16T15:37:48;3.73;;;2.13;;
1346;SDS011;667;48.796;9.480;2024-01-16T15:40:14;3.47;;;2.08;;
1346;SDS011;667;48.796;9.480;2024-01-16T15:42:40;3.15;;;2.25;;